createdAt,value
2023-03-28T10:10:26.392Z,101485.06
2023-03-28T10:12:57.087Z,101490.44
2023-03-28T10:15:41.468Z,101487.56
2023-03-28T10:18:08.527Z,101483.00
2023-03-28T10:20:36.999Z,101479.31
2023-03-28T10:23:04.631Z,101490.03
2023-03-28T10:25:39.964Z,101491.72
2023-03-28T10:28:07.732Z,101486.34
2023-03-28T10:30:35.836Z,101485.16
2023-03-28T10:33:17.715Z,101477.72
2023-03-28T10:35:45.965Z,101473.69
2023-03-28T10:38:16.906Z,101481.34
2023-03-28T10:40:43.524Z,101489.84
2023-03-28T10:43:13.653Z,101484.91
2023-03-28T10:45:42.251Z,101488.81
2023-03-28T10:48:13.393Z,101482.03
2023-03-28T10:50:50.345Z,101480.03
2023-03-28T10:53:35.716Z,101485.38
2023-03-28T10:56:21.282Z,101490.38
2023-03-28T10:58:56.997Z,101481.97
2023-03-28T11:01:27.307Z,101476.41
2023-03-28T11:04:12.351Z,101485.06
2023-03-28T11:06:46.881Z,101482.19
2023-03-28T11:09:31.863Z,101491.72
2023-03-28T11:11:58.476Z,101492.56
2023-03-28T11:14:37.132Z,101500.44
2023-03-28T11:17:03.769Z,101495.88
2023-03-28T11:19:42.624Z,101488.50
2023-03-28T11:22:18.330Z,101489.31
2023-03-28T11:25:06.593Z,101485.59
2023-03-28T11:27:51.329Z,101485.22
2023-03-28T11:30:20.981Z,101488.38
2023-03-28T11:33:13.336Z,101486.13
2023-03-28T11:35:51.762Z,101486.56
2023-03-28T11:38:22.527Z,101486.81
2023-03-28T11:41:01.650Z,101475.53
2023-03-28T11:43:51.119Z,101475.44
2023-03-28T11:46:27.324Z,101467.03
2023-03-28T11:49:16.327Z,101462.81
2023-03-28T11:51:56.340Z,101456.50
2023-03-28T11:54:27.648Z,101456.00
2023-03-28T11:57:01.321Z,101451.31
2023-03-28T11:59:28.183Z,101451.97
2023-03-28T12:02:02.432Z,101451.00
2023-03-28T12:04:33.593Z,101440.28
2023-03-28T12:07:03.233Z,101441.13
2023-03-28T12:09:41.427Z,101441.19
2023-03-28T12:12:10.984Z,101435.88
2023-03-28T12:14:56.983Z,101436.34
2023-03-28T12:17:27.136Z,101432.25
2023-03-28T12:19:53.984Z,101433.56
2023-03-28T12:22:40.481Z,101434.00
2023-03-28T12:25:24.761Z,101430.31
2023-03-28T12:28:11.244Z,101433.00
2023-03-28T12:30:43.163Z,101428.88
2023-03-28T12:33:24.468Z,101434.91
2023-03-28T12:36:10.813Z,101430.13
2023-03-28T12:38:42.564Z,101420.81
2023-03-28T12:41:11.961Z,101422.47
2023-03-28T12:43:41.545Z,101408.81
2023-03-28T12:46:08.882Z,101416.47
2023-03-28T12:48:35.555Z,101408.38
2023-03-28T12:51:04.864Z,101411.06
2023-03-28T12:53:32.010Z,101411.72
2023-03-28T12:55:58.609Z,101400.72
2023-03-28T12:58:29.083Z,101400.50
2023-03-28T13:00:58.776Z,101408.81
2023-03-28T13:03:28.664Z,101405.53
2023-03-28T13:06:14.381Z,101405.69
2023-03-28T13:08:59.880Z,101395.78
2023-03-28T13:11:29.801Z,101403.44
2023-03-28T13:13:58.070Z,101408.81
2023-03-28T13:16:37.396Z,101403.84
2023-03-28T13:19:09.062Z,101399.06
2023-03-28T13:21:41.958Z,101398.66
2023-03-28T13:24:28.043Z,101392.66
2023-03-28T13:26:58.811Z,101393.06
2023-03-28T13:29:42.541Z,101394.09
2023-03-28T13:32:12.435Z,101389.34
2023-03-28T13:34:38.979Z,101393.50
2023-03-28T13:37:22.677Z,101378.97
2023-03-28T13:39:51.007Z,101382.50
2023-03-28T13:42:46.816Z,101370.69
2023-03-28T13:45:20.485Z,101379.81
2023-03-28T13:47:50.250Z,101376.69
2023-03-28T13:50:23.160Z,101378.16
2023-03-28T13:52:49.763Z,101367.81
2023-03-28T13:55:24.129Z,101365.28
2023-03-28T13:57:51.669Z,101364.03
2023-03-28T14:00:20.779Z,101362.78
2023-03-28T14:02:48.755Z,101365.69
2023-03-28T14:05:20.195Z,101349.09
2023-03-28T14:07:46.879Z,101355.72
2023-03-28T14:10:30.451Z,101348.25
2023-03-28T14:12:59.081Z,101344.94
2023-03-28T14:15:28.998Z,101340.16
2023-03-28T14:17:57.105Z,101337.88
2023-03-28T14:20:24.047Z,101336.84
2023-03-28T14:22:59.837Z,101332.03
2023-03-28T14:25:27.949Z,101323.94
2023-03-28T14:27:56.007Z,101317.53
2023-03-28T14:30:25.647Z,101310.06
2023-03-28T14:32:59.208Z,101318.78
2023-03-28T14:35:29.694Z,101309.22
2023-03-28T14:37:57.548Z,101304.66
2023-03-28T14:40:24.182Z,101312.06
2023-03-28T14:42:55.973Z,101305.81
2023-03-28T14:45:24.779Z,101309.50
2023-03-28T14:47:51.844Z,101303.66
2023-03-28T14:50:20.473Z,101301.59
2023-03-28T14:52:47.562Z,101296.19
2023-03-28T14:55:24.138Z,101299.91
2023-03-28T14:57:52.278Z,101298.25
2023-03-28T15:00:22.672Z,101296.19
2023-03-28T15:02:49.524Z,101269.19
2023-03-28T15:05:17.777Z,101280.44
2023-03-28T15:07:44.925Z,101286.03
2023-03-28T15:10:20.708Z,101271.13
2023-03-28T15:12:51.525Z,101270.50
2023-03-28T15:15:24.170Z,101266.34
2023-03-28T15:17:51.959Z,101267.16
2023-03-28T15:20:21.228Z,101260.97
2023-03-28T15:22:50.213Z,101265.13
2023-03-28T15:25:17.064Z,101254.56
2023-03-28T15:27:48.151Z,101250.66
2023-03-28T15:30:16.747Z,101254.81
2023-03-28T15:32:43.686Z,101248.19
2023-03-28T15:35:24.313Z,101246.94
2023-03-28T15:37:52.349Z,101244.69
2023-03-28T15:40:22.486Z,101239.75
2023-03-28T15:42:50.090Z,101231.47
2023-03-28T15:45:19.601Z,101228.53
2023-03-28T15:47:47.215Z,101228.75
2023-03-28T15:50:16.854Z,101222.34
2023-03-28T15:52:43.394Z,101211.72
2023-03-28T15:55:18.647Z,101211.72
2023-03-28T15:57:47.903Z,101215.47
2023-03-28T16:00:37.568Z,101210.47
2023-03-28T16:03:25.490Z,101202.22
2023-03-28T16:06:09.856Z,101206.78
2023-03-28T16:08:39.599Z,101207.66
2023-03-28T16:11:07.062Z,101210.75
2023-03-28T16:13:34.206Z,101205.63
2023-03-28T16:16:01.460Z,101201.06
2023-03-28T16:18:28.282Z,101198.81
2023-03-28T16:20:54.775Z,101202.34
2023-03-28T16:23:21.259Z,101189.13
2023-03-28T16:25:47.930Z,101190.38
2023-03-28T16:28:17.402Z,101193.72
2023-03-28T16:30:44.202Z,101191.63
2023-03-28T16:33:11.020Z,101187.50
2023-03-28T16:35:37.868Z,101189.59
2023-03-28T16:38:04.416Z,101188.34
2023-03-28T16:40:31.396Z,101192.50
2023-03-28T16:42:58.012Z,101197.28
2023-03-28T16:45:25.053Z,101190.44
2023-03-28T16:47:52.489Z,101189.00
2023-03-28T16:50:19.235Z,101185.50
2023-03-28T16:52:45.723Z,101186.53
2023-03-28T16:55:13.544Z,101186.09
2023-03-28T16:57:40.621Z,101186.75
2023-03-28T17:00:09.231Z,101191.72
2023-03-28T17:02:35.967Z,101191.50
2023-03-28T17:05:02.582Z,101192.16
2023-03-28T17:07:29.132Z,101185.53
2023-03-28T17:09:55.768Z,101175.59
2023-03-28T17:12:24.075Z,101178.50
2023-03-28T17:14:51.423Z,101169.38
2023-03-28T17:17:21.439Z,101176.81
2023-03-28T17:19:48.111Z,101173.91
2023-03-28T17:22:14.776Z,101171.63
2023-03-28T17:24:41.363Z,101170.19
2023-03-28T17:27:09.916Z,101159.84
2023-03-28T17:29:36.432Z,101148.66
2023-03-28T17:32:03.261Z,101154.47
2023-03-28T17:34:32.105Z,101151.78
2023-03-28T17:36:59.089Z,101145.34
2023-03-28T17:39:25.727Z,101145.75
2023-03-28T17:41:53.398Z,101145.34
2023-03-28T17:44:20.576Z,101140.38
2023-03-28T17:46:47.971Z,101137.28
2023-03-28T17:49:16.887Z,101131.50
2023-03-28T17:51:45.191Z,101126.50
2023-03-28T17:54:12.246Z,101129.63
2023-03-28T17:56:39.409Z,101130.03
2023-03-28T17:59:06.406Z,101126.94
2023-03-28T18:01:33.008Z,101120.09
2023-03-28T18:03:59.770Z,101112.25
2023-03-28T18:06:26.482Z,101112.44
2023-03-28T18:08:53.096Z,101114.50
2023-03-28T18:11:20.238Z,101114.50
2023-03-28T18:13:47.019Z,101120.91
2023-03-28T18:16:14.487Z,101112.22
2023-03-28T18:18:41.631Z,101113.25
2023-03-28T18:21:08.693Z,101109.97
2023-03-28T18:23:36.048Z,101115.53
2023-03-28T18:26:03.007Z,101120.28
2023-03-28T18:28:29.759Z,101118.84
2023-03-28T18:30:57.442Z,101118.41
2023-03-28T18:33:24.126Z,101119.63
2023-03-28T18:35:50.804Z,101113.66
2023-03-28T18:38:17.925Z,101115.09
2023-03-28T18:40:44.599Z,101117.16
2023-03-28T18:43:11.157Z,101103.28
2023-03-28T18:45:37.827Z,101112.41
2023-03-28T18:48:04.751Z,101109.28
2023-03-28T18:50:31.580Z,101119.38
2023-03-28T18:52:58.227Z,101123.31
2023-03-28T18:55:24.989Z,101118.34
2023-03-28T18:57:52.855Z,101120.44
2023-03-28T19:00:19.973Z,101118.31
2023-03-28T19:02:47.175Z,101118.75
2023-03-28T19:05:15.439Z,101113.38
2023-03-28T19:07:46.025Z,101102.00
2023-03-28T19:10:13.584Z,101100.97
2023-03-28T19:12:41.459Z,101095.16
2023-03-28T19:15:08.902Z,101088.16
2023-03-28T19:17:36.606Z,101084.84
2023-03-28T19:20:07.571Z,101089.38
2023-03-28T19:22:35.249Z,101080.69
2023-03-28T19:25:01.878Z,101070.97
2023-03-28T19:27:28.386Z,101066.63
2023-03-28T19:30:01.935Z,101069.50
2023-03-28T19:32:30.642Z,101069.72
2023-03-28T19:34:57.474Z,101060.22
2023-03-28T19:37:24.050Z,101068.47
2023-03-28T19:39:50.570Z,101051.72
2023-03-28T19:42:18.264Z,101052.09
2023-03-28T19:44:44.869Z,101045.06
2023-03-28T19:47:11.713Z,101044.47
2023-03-28T19:49:38.912Z,101045.47
2023-03-28T19:52:05.868Z,101043.81
2023-03-28T19:54:32.509Z,101049.41
2023-03-28T19:56:59.142Z,101043.41
2023-03-28T19:59:25.997Z,101043.59
2023-03-28T20:01:52.548Z,101042.97
2023-03-28T20:04:21.026Z,101041.31
2023-03-28T20:06:48.935Z,101038.03
2023-03-28T20:09:15.628Z,101029.34
2023-03-28T20:11:42.242Z,101034.91
2023-03-28T20:14:09.604Z,101032.44
2023-03-28T20:16:36.302Z,101037.16
2023-03-28T20:19:03.115Z,101033.88
2023-03-28T20:21:29.783Z,101032.22
2023-03-28T20:23:58.535Z,101025.38
2023-03-28T20:26:27.249Z,101027.25
2023-03-28T20:28:57.039Z,101019.38
2023-03-28T20:31:23.725Z,101018.56
2023-03-28T20:33:52.110Z,101017.91
2023-03-28T20:36:18.754Z,101018.97
2023-03-28T20:38:45.341Z,101017.09
2023-03-28T20:41:12.989Z,101015.63
2023-03-28T20:43:40.994Z,101013.97
2023-03-28T20:46:07.866Z,101013.97
2023-03-28T20:48:34.918Z,101013.38
2023-03-28T20:51:05.992Z,101018.09
2023-03-28T20:53:35.717Z,101002.81
2023-03-28T20:56:03.629Z,101000.75
2023-03-28T20:58:30.727Z,100992.91
2023-03-28T21:00:58.377Z,100989.56
2023-03-28T21:03:39.319Z,100992.47
2023-03-28T21:06:06.779Z,100988.16
2023-03-28T21:08:36.476Z,100982.16
2023-03-28T21:11:03.887Z,100983.16
2023-03-28T21:13:30.557Z,100978.81
2023-03-28T21:15:57.591Z,100973.44
2023-03-28T21:18:25.095Z,100966.47
2023-03-28T21:20:54.272Z,100965.59
2023-03-28T21:23:21.001Z,100971.19
2023-03-28T21:25:52.106Z,100958.78
2023-03-28T21:28:18.993Z,100959.84
2023-03-28T21:30:56.173Z,100956.53
2023-03-28T21:33:22.745Z,100962.09
2023-03-28T21:35:52.506Z,100965.59
2023-03-28T21:38:19.423Z,100963.31
2023-03-28T21:40:48.960Z,100958.97
2023-03-28T21:43:16.157Z,100956.50
2023-03-28T21:45:46.541Z,100951.94
2023-03-28T21:48:13.435Z,100951.34
2023-03-28T21:50:41.083Z,100946.19
2023-03-28T21:53:08.708Z,100940.16
2023-03-28T21:55:35.783Z,100940.16
2023-03-28T21:58:02.611Z,100942.03
2023-03-28T22:00:29.259Z,100942.41
2023-03-28T22:02:56.207Z,100930.06
2023-03-28T22:05:29.744Z,100929.63
2023-03-28T22:07:56.836Z,100930.84
2023-03-28T22:10:26.742Z,100933.13
2023-03-28T22:12:54.026Z,100934.16
2023-03-28T22:15:20.538Z,100929.81
2023-03-28T22:17:47.281Z,100923.63
2023-03-28T22:20:14.531Z,100927.16
2023-03-28T22:22:45.242Z,100917.44
2023-03-28T22:25:14.233Z,100919.31
2023-03-28T22:27:40.763Z,100924.66
2023-03-28T22:30:10.363Z,100902.38
2023-03-28T22:32:38.950Z,100906.72
2023-03-28T22:35:05.931Z,100901.56
2023-03-28T22:37:33.320Z,100898.66
2023-03-28T22:39:59.865Z,100901.34
2023-03-28T22:42:26.747Z,100898.66
2023-03-28T22:44:53.348Z,100889.59
2023-03-28T22:47:19.862Z,100897.00
2023-03-28T22:49:46.374Z,100886.28
2023-03-28T22:52:13.780Z,100887.13
2023-03-28T22:54:42.753Z,100882.16
2023-03-28T22:57:09.796Z,100880.09
2023-03-28T22:59:36.666Z,100877.22
2023-03-28T23:02:03.913Z,100872.88
2023-03-28T23:04:33.188Z,100874.53
2023-03-28T23:06:59.718Z,100883.00
2023-03-28T23:09:27.848Z,100861.75
2023-03-28T23:11:55.189Z,100858.88
2023-03-28T23:14:22.283Z,100866.50
2023-03-28T23:16:49.076Z,100864.63
2023-03-28T23:19:16.512Z,100858.25
2023-03-28T23:21:43.483Z,100850.41
2023-03-28T23:24:10.204Z,100854.53
2023-03-28T23:26:36.739Z,100849.78
2023-03-28T23:29:05.352Z,100853.72
2023-03-28T23:31:32.065Z,100853.31
2023-03-28T23:33:58.721Z,100849.19
2023-03-28T23:36:26.259Z,100846.09
2023-03-28T23:38:53.209Z,100852.28
2023-03-28T23:41:19.675Z,100847.94
2023-03-28T23:43:46.366Z,100849.63
2023-03-28T23:46:12.957Z,100845.28
2023-03-28T23:48:39.494Z,100849.63
2023-03-28T23:51:06.295Z,100846.72
2023-03-28T23:53:32.821Z,100846.72
2023-03-28T23:55:59.394Z,100844.03
2023-03-28T23:58:26.102Z,100848.19
